Hayward, WI

2:45 AM CDT on July 04, 2015 (GMT -0500)
Sawyer County | | Change Station
CLOSE
Current Station
Airport
Location: Hayward,
Elevation: 1214 ft
Nearby Weather Stations

Elev 1214 ft 46.02 °N, 91.45 °W | Updated 52 minutes ago

Fog
Fog
56 °F
Feels Like 56 °F
N
0
Wind Variable Wind from North

Today
High -- | Low -- °F
--% Chance of Precip.
Yesterday
High -- | Low -- °F
Precip. -- in
5:20 AM 8:59 PM
Waning Gibbous, 94% visible
Pressure 29.92 in
Visibility 0.2 miles
Clouds
Dew Point 55 °F
Humidity 97%
Rainfall 0.00 in
Snow Depth Not available.
UV Not available.
Pollen 4.90 out of 12
Air Quality Not available.
Flu Activity Not available.
METAR KHYR 040653Z AUTO 00000KT 1/4SM FG VV001 13/13 A2992 RMK AO2 SLP130 T01330128

More Conditions Fewer Conditions

Pressure 29.92 in
Visibility 0.2 miles
Clouds
Dew Point 55 °F
Humidity 97%
Rainfall 0.00 in
Snow Depth Not available.
UV Not available.
Pollen 4.90 out of 12
Air Quality Not available.
Flu Activity Not available.
METAR KHYR 040653Z AUTO 00000KT 1/4SM FG VV001 13/13 A2992 RMK AO2 SLP130 T01330128

More Conditions Fewer Conditions

10-Day Weather Forecast

×

Almanac

Astronomy

Jul. 04, 2015 Rise Set
Actual Time
Civil Twilight
Nautical Twilight
Astronomical Twilight
Moon
Length of Visible Light
Length of Day
Tomorrow will be .
, % of the Moon is Illuminated

Today's Extremes

State Highs State Lows

Community

WunderPhotos

Upload Photos

1,834,930 photos uploaded!

WunderBlogs® & News

Nearby

Air Quality

  Air Quality AQ Index Pollutant
Not available.

Snow Depth

Station Depth Elevation

Earthquake Activity

City Distance Mag. Time & Date
Minimum magnitude displayed is 2.5.

Coastal Water Temperatures

Place Temperature

Stations

Nearby Weather Stations

Station Location Temp. Windchill Dew Point Humidity Wind Precip. Elev Updated Type